createdAt,value
2022-10-28T00:00:37.553Z,6.65
2022-10-28T00:03:04.193Z,7.03
2022-10-28T00:05:34.876Z,6.78
2022-10-28T00:08:01.438Z,6.03
2022-10-28T00:10:28.033Z,7.00
2022-10-28T00:12:54.564Z,6.47
2022-10-28T00:15:21.091Z,6.72
2022-10-28T00:17:47.675Z,6.20
2022-10-28T00:20:18.249Z,5.72
2022-10-28T00:22:44.817Z,5.82
2022-10-28T00:25:11.668Z,5.80
2022-10-28T00:27:38.513Z,5.90
2022-10-28T00:30:05.495Z,5.05
2022-10-28T00:32:32.189Z,5.28
2022-10-28T00:34:58.724Z,4.80
2022-10-28T00:37:25.270Z,5.13
2022-10-28T00:39:51.798Z,4.97
2022-10-28T00:42:22.153Z,4.78
2022-10-28T00:45:04.996Z,5.25
2022-10-28T00:47:52.304Z,4.47
2022-10-28T00:50:47.220Z,4.55
2022-10-28T00:53:32.381Z,4.47
2022-10-28T00:56:01.962Z,4.53
2022-10-28T00:58:29.560Z,5.50
2022-10-28T01:00:56.661Z,5.40
2022-10-28T01:03:23.341Z,5.88
2022-10-28T01:05:51.623Z,6.03
2022-10-28T01:08:18.586Z,5.90
2022-10-28T01:10:57.257Z,5.43
2022-10-28T01:14:12.567Z,5.20
2022-10-28T01:16:49.896Z,6.93
2022-10-28T01:19:38.222Z,5.00
2022-10-28T01:22:14.831Z,4.50
2022-10-28T01:25:00.136Z,4.32
2022-10-28T01:28:03.886Z,4.65
2022-10-28T01:30:53.773Z,4.53
2022-10-28T01:33:46.388Z,4.90
2022-10-28T01:36:33.884Z,4.72
2022-10-28T01:39:14.057Z,4.90
2022-10-28T01:41:54.026Z,4.13
2022-10-28T01:44:47.942Z,4.60
2022-10-28T01:47:22.711Z,4.82
2022-10-28T01:50:15.689Z,4.53
2022-10-28T01:52:46.669Z,4.18
2022-10-28T01:55:22.757Z,4.72
2022-10-28T01:57:52.769Z,4.20
2022-10-28T02:00:19.776Z,4.47
2022-10-28T02:02:48.216Z,4.15
2022-10-28T02:05:42.373Z,4.22
2022-10-28T02:08:15.293Z,3.80
2022-10-28T02:11:08.569Z,4.13
2022-10-28T02:13:52.384Z,4.47
2022-10-28T02:16:51.571Z,4.00
2022-10-28T02:19:55.753Z,5.22
2022-10-28T02:22:46.812Z,4.05
2022-10-28T02:25:30.440Z,4.40
2022-10-28T02:28:03.702Z,4.57
2022-10-28T02:31:11.802Z,4.53
2022-10-28T02:33:42.104Z,4.70
2022-10-28T02:36:20.396Z,4.10
2022-10-28T02:38:56.181Z,4.22
2022-10-28T02:41:28.765Z,3.92
2022-10-28T02:43:59.901Z,4.35
2022-10-28T02:46:31.443Z,5.18
2022-10-28T02:49:06.525Z,4.18
2022-10-28T02:51:40.975Z,4.28
2022-10-28T02:54:14.975Z,4.93
2022-10-28T02:56:52.962Z,4.10
2022-10-28T02:59:19.614Z,4.57
2022-10-28T03:01:46.222Z,3.88
2022-10-28T03:04:12.962Z,4.25
2022-10-28T03:06:39.543Z,4.28
2022-10-28T03:09:06.114Z,3.80
2022-10-28T03:11:32.803Z,4.75
2022-10-28T03:13:59.767Z,4.78
2022-10-28T03:16:26.795Z,4.57
2022-10-28T03:18:53.709Z,4.55
2022-10-28T03:21:20.335Z,4.20
2022-10-28T03:23:46.880Z,4.88
2022-10-28T03:26:13.537Z,4.03
2022-10-28T03:28:40.059Z,4.45
2022-10-28T03:31:06.622Z,5.63
2022-10-28T03:33:33.329Z,4.85
2022-10-28T03:35:59.941Z,4.80
2022-10-28T03:38:26.468Z,5.18
2022-10-28T03:40:53.012Z,5.00
2022-10-28T03:43:19.551Z,5.00
2022-10-28T03:45:46.073Z,5.07
2022-10-28T03:48:12.583Z,4.70
2022-10-28T03:50:39.151Z,4.88
2022-10-28T03:53:05.813Z,5.45
2022-10-28T03:55:32.394Z,4.70
2022-10-28T03:58:02.848Z,5.53
2022-10-28T04:00:30.066Z,5.05
2022-10-28T04:02:56.888Z,4.60
2022-10-28T04:05:23.672Z,4.65
2022-10-28T04:07:50.306Z,5.50
2022-10-28T04:10:16.909Z,5.20
2022-10-28T04:12:43.452Z,4.75
2022-10-28T04:15:10.070Z,6.10
2022-10-28T04:17:36.614Z,6.68
2022-10-28T04:20:03.670Z,7.50
2022-10-28T04:22:30.240Z,6.35
2022-10-28T04:24:56.799Z,5.68
2022-10-28T04:27:23.410Z,5.97
2022-10-28T04:29:49.926Z,5.78
2022-10-28T04:32:16.465Z,6.10
2022-10-28T04:34:42.963Z,6.82
2022-10-28T04:37:09.467Z,6.00
2022-10-28T04:39:36.087Z,5.53
2022-10-28T04:42:02.627Z,6.63
2022-10-28T04:44:29.251Z,5.30
2022-10-28T04:46:56.845Z,5.68
2022-10-28T04:49:24.083Z,5.38
2022-10-28T04:51:50.581Z,5.82
2022-10-28T04:54:17.155Z,5.80
2022-10-28T04:56:44.062Z,6.25
2022-10-28T04:59:10.866Z,8.13
2022-10-28T05:01:37.509Z,6.80
2022-10-28T05:04:04.317Z,6.70
2022-10-28T05:06:30.820Z,6.07
2022-10-28T05:08:57.379Z,6.15
2022-10-28T05:11:23.896Z,6.82
2022-10-28T05:13:53.016Z,5.95
2022-10-28T05:16:19.893Z,6.05
2022-10-28T05:18:46.716Z,7.25
2022-10-28T05:21:13.333Z,6.38
2022-10-28T05:23:40.050Z,5.82
2022-10-28T05:26:06.614Z,6.32
2022-10-28T05:28:33.312Z,5.78
2022-10-28T05:31:00.002Z,5.60
2022-10-28T05:33:26.674Z,5.85
2022-10-28T05:35:53.378Z,6.15
2022-10-28T05:38:19.896Z,6.03
2022-10-28T05:40:46.513Z,6.43
2022-10-28T05:43:13.105Z,6.53
2022-10-28T05:45:39.624Z,5.68
2022-10-28T05:48:07.269Z,6.32
2022-10-28T05:50:34.211Z,6.88
2022-10-28T05:53:00.999Z,6.13
2022-10-28T05:55:29.460Z,7.00
2022-10-28T05:57:56.897Z,7.70
2022-10-28T06:00:25.961Z,7.55
2022-10-28T06:02:53.165Z,6.70
2022-10-28T06:05:20.335Z,7.35
2022-10-28T06:07:47.096Z,7.03
2022-10-28T06:10:13.716Z,6.85
2022-10-28T06:12:38.874Z,6.50
2022-10-28T06:15:06.018Z,7.55
2022-10-28T06:17:32.657Z,7.28
2022-10-28T06:19:59.300Z,6.88
2022-10-28T06:22:25.846Z,6.93
2022-10-28T06:24:52.447Z,5.88
2022-10-28T06:27:19.025Z,6.22
2022-10-28T06:29:45.574Z,6.60
2022-10-28T06:32:12.208Z,7.25
2022-10-28T06:34:38.815Z,8.60
2022-10-28T06:37:05.669Z,6.63
2022-10-28T06:39:32.975Z,7.75
2022-10-28T06:41:59.749Z,8.07
2022-10-28T06:44:26.345Z,6.97
2022-10-28T06:46:55.371Z,7.28
2022-10-28T06:49:22.173Z,6.93
2022-10-28T06:51:50.008Z,6.82
2022-10-28T06:54:16.788Z,7.55
2022-10-28T06:56:46.423Z,6.82
2022-10-28T06:59:13.043Z,7.00
2022-10-28T07:01:39.668Z,7.15
2022-10-28T07:04:06.947Z,7.60
2022-10-28T07:06:33.529Z,6.88
2022-10-28T07:09:00.095Z,6.88
2022-10-28T07:11:26.650Z,6.70
2022-10-28T07:13:53.174Z,6.90
2022-10-28T07:16:19.734Z,7.20
2022-10-28T07:18:47.141Z,6.85
2022-10-28T07:21:14.365Z,5.97
2022-10-28T07:23:40.880Z,6.95
2022-10-28T07:26:07.539Z,6.15
2022-10-28T07:28:34.091Z,6.70
2022-10-28T07:31:02.180Z,6.22
2022-10-28T07:33:28.916Z,6.38
2022-10-28T07:35:55.571Z,6.55
2022-10-28T07:38:22.603Z,6.32
2022-10-28T07:40:49.145Z,6.82
2022-10-28T07:43:15.767Z,6.20
2022-10-28T07:45:42.395Z,6.20
2022-10-28T07:48:09.714Z,6.40
2022-10-28T07:50:36.294Z,6.97
2022-10-28T07:53:02.958Z,6.00
2022-10-28T07:55:29.606Z,5.95
2022-10-28T07:57:56.588Z,5.88
2022-10-28T08:00:23.430Z,6.10
2022-10-28T08:02:50.056Z,5.90
2022-10-28T08:05:16.808Z,5.15
2022-10-28T08:07:43.430Z,5.35
2022-10-28T08:10:10.109Z,5.13
2022-10-28T08:12:36.722Z,5.53
2022-10-28T08:15:04.094Z,5.10
2022-10-28T08:17:30.744Z,5.78
2022-10-28T08:19:57.714Z,5.70
2022-10-28T08:22:24.683Z,4.95
2022-10-28T08:24:51.263Z,5.97
2022-10-28T08:27:17.791Z,4.63
2022-10-28T08:29:44.345Z,5.40
2022-10-28T08:32:10.915Z,4.72
2022-10-28T08:34:40.772Z,4.93
2022-10-28T08:37:10.175Z,5.18
2022-10-28T08:39:36.852Z,5.00
2022-10-28T08:42:41.287Z,4.70
2022-10-28T08:45:22.082Z,4.55
2022-10-28T08:48:05.627Z,4.07
2022-10-28T08:50:35.536Z,4.97
2022-10-28T08:53:19.477Z,4.22
2022-10-28T08:55:48.606Z,4.90
2022-10-28T08:58:28.475Z,4.22
2022-10-28T09:00:57.280Z,4.63
2022-10-28T09:03:38.993Z,4.95
2022-10-28T09:06:08.427Z,4.32
2022-10-28T09:08:39.231Z,4.80
2022-10-28T09:11:30.210Z,4.00
2022-10-28T09:13:56.730Z,4.65
2022-10-28T09:16:49.115Z,3.65
2022-10-28T09:19:28.327Z,4.78
2022-10-28T09:22:19.822Z,4.82
2022-10-28T09:24:55.773Z,4.53
2022-10-28T09:27:50.390Z,4.55
2022-10-28T09:30:19.960Z,4.13
2022-10-28T09:32:58.704Z,3.78
2022-10-28T09:35:30.612Z,4.32
2022-10-28T09:38:08.980Z,4.18
2022-10-28T09:40:36.737Z,3.65
2022-10-28T09:43:32.804Z,4.57
2022-10-28T09:46:04.125Z,3.97
2022-10-28T09:48:39.141Z,4.07
2022-10-28T09:51:05.875Z,4.13
2022-10-28T09:53:48.051Z,4.10
2022-10-28T09:56:15.058Z,4.20
2022-10-28T09:58:46.712Z,4.32
2022-10-28T10:01:14.255Z,4.30
2022-10-28T10:03:41.818Z,3.58
2022-10-28T10:06:28.644Z,4.30
2022-10-28T10:08:59.211Z,4.07
2022-10-28T10:11:28.749Z,4.30
2022-10-28T10:13:58.758Z,3.60
2022-10-28T10:16:33.290Z,3.85
2022-10-28T10:19:02.005Z,3.80
2022-10-28T10:21:51.735Z,4.32
2022-10-28T10:24:31.916Z,3.95
2022-10-28T10:27:10.654Z,4.53
2022-10-28T10:29:43.916Z,4.22
2022-10-28T10:32:32.166Z,4.95
2022-10-28T10:35:15.209Z,3.67
2022-10-28T10:37:44.985Z,3.40
2022-10-28T10:40:31.239Z,3.25
2022-10-28T10:43:22.413Z,3.65
2022-10-28T10:45:52.773Z,4.45
2022-10-28T10:48:19.421Z,3.70
2022-10-28T10:50:48.549Z,3.67
2022-10-28T10:53:24.261Z,3.85
2022-10-28T10:56:01.247Z,4.15
2022-10-28T10:58:34.212Z,4.13
2022-10-28T11:01:04.663Z,4.03
2022-10-28T11:03:50.353Z,3.80
2022-10-28T11:06:27.731Z,3.53
2022-10-28T11:09:00.589Z,3.92
2022-10-28T11:11:39.009Z,4.07
2022-10-28T11:14:13.353Z,4.03
2022-10-28T11:16:47.702Z,5.25
2022-10-28T11:19:21.066Z,4.43
2022-10-28T11:21:56.763Z,4.70
2022-10-28T11:24:38.640Z,3.58
2022-10-28T11:27:23.796Z,3.60
2022-10-28T11:29:50.566Z,3.90
2022-10-28T11:32:30.525Z,4.07
2022-10-28T11:34:59.946Z,3.85
2022-10-28T11:37:40.990Z,3.67
2022-10-28T11:40:38.154Z,4.07
2022-10-28T11:43:35.802Z,3.50
2022-10-28T11:46:35.053Z,3.58
2022-10-28T11:49:13.369Z,3.88
2022-10-28T11:52:07.347Z,5.43
2022-10-28T11:54:50.092Z,3.72
2022-10-28T11:57:37.051Z,3.50
2022-10-28T12:00:34.713Z,4.10
2022-10-28T12:03:19.585Z,4.10
2022-10-28T12:06:23.138Z,3.83
2022-10-28T12:08:58.821Z,2.80
2022-10-28T12:11:52.849Z,3.85
2022-10-28T12:15:01.823Z,3.05
2022-10-28T12:17:36.200Z,3.58
2022-10-28T12:20:11.306Z,4.40
2022-10-28T12:22:49.320Z,3.83
2022-10-28T12:25:24.325Z,2.95
2022-10-28T12:27:55.568Z,4.28
2022-10-28T12:30:27.286Z,3.25
2022-10-28T12:32:59.359Z,3.80
2022-10-28T12:35:31.280Z,4.00
2022-10-28T12:38:15.125Z,3.90
2022-10-28T12:40:50.363Z,4.88
2022-10-28T12:43:39.173Z,4.25
2022-10-28T12:46:18.605Z,3.88
2022-10-28T12:48:52.847Z,4.80
2022-10-28T12:51:38.645Z,3.70
2022-10-28T12:54:23.169Z,3.70
2022-10-28T12:56:55.281Z,3.97
2022-10-28T12:59:34.481Z,3.63
2022-10-28T13:04:29.923Z,3.67
2022-10-28T13:07:39.115Z,3.72
2022-10-28T13:10:29.331Z,4.28
2022-10-28T13:13:16.942Z,4.20
2022-10-28T13:16:16.451Z,3.70
2022-10-28T13:19:02.853Z,4.00
2022-10-28T13:21:41.852Z,3.30
2022-10-28T13:24:11.565Z,4.45
2022-10-28T13:26:43.947Z,3.65
2022-10-28T13:29:24.280Z,3.58
2022-10-28T13:31:52.328Z,4.13
2022-10-28T13:34:22.672Z,3.50
2022-10-28T13:36:59.459Z,3.45
2022-10-28T13:39:40.832Z,3.40
2022-10-28T13:42:14.035Z,4.50
2022-10-28T13:45:02.081Z,3.92
2022-10-28T13:47:34.342Z,4.27
2022-10-28T13:50:21.971Z,4.10
2022-10-28T13:53:24.373Z,4.05
2022-10-28T13:55:57.796Z,4.10
2022-10-28T13:58:26.262Z,3.83
2022-10-28T14:00:53.846Z,4.00
2022-10-28T14:03:28.323Z,4.32
2022-10-28T14:06:00.424Z,3.67
2022-10-28T14:08:35.549Z,4.40
2022-10-28T14:11:12.905Z,4.50
2022-10-28T14:13:52.162Z,4.40
2022-10-28T14:19:11.540Z,3.78
2022-10-28T14:21:51.487Z,3.95
2022-10-28T14:24:39.188Z,3.42
2022-10-28T14:27:06.366Z,4.03
2022-10-28T14:29:54.961Z,4.05
2022-10-28T14:32:37.316Z,4.13
2022-10-28T14:35:13.144Z,4.13
2022-10-28T14:38:01.437Z,4.22
2022-10-28T14:40:48.538Z,3.70
2022-10-28T14:43:30.889Z,4.60
2022-10-28T14:46:17.760Z,3.58
2022-10-28T14:48:48.252Z,4.78
2022-10-28T14:51:19.520Z,3.97
2022-10-28T14:53:47.059Z,4.25
2022-10-28T14:56:24.732Z,4.70
2022-10-28T14:58:54.053Z,4.32
2022-10-28T15:03:58.964Z,4.68
2022-10-28T15:06:37.333Z,4.10
2022-10-28T15:09:08.199Z,3.70
2022-10-28T15:11:35.102Z,3.85
2022-10-28T15:14:27.520Z,3.63
2022-10-28T15:16:54.665Z,4.10
2022-10-28T15:19:25.341Z,3.85
2022-10-28T15:22:13.157Z,3.85
2022-10-28T15:24:43.107Z,4.03
2022-10-28T15:27:14.004Z,4.25
2022-10-28T15:29:41.891Z,4.63
2022-10-28T15:32:20.794Z,5.35
2022-10-28T15:34:48.373Z,5.80
2022-10-28T15:37:24.041Z,5.05
2022-10-28T15:39:53.220Z,4.75
2022-10-28T15:42:39.119Z,5.10
2022-10-28T15:45:42.593Z,5.45
2022-10-28T15:48:26.012Z,5.82
2022-10-28T15:51:13.083Z,5.63
2022-10-28T15:53:47.327Z,5.65
2022-10-28T15:56:22.642Z,4.88
2022-10-28T15:59:21.032Z,5.22
2022-10-28T16:01:48.125Z,4.88
2022-10-28T16:04:17.935Z,6.05
2022-10-28T16:06:45.449Z,5.95
2022-10-28T16:09:19.810Z,5.38
2022-10-28T16:11:54.389Z,5.85
2022-10-28T16:14:23.827Z,5.43
2022-10-28T16:16:50.455Z,5.45
2022-10-28T16:19:30.309Z,5.72
2022-10-28T16:21:56.947Z,4.97
2022-10-28T16:24:23.479Z,4.35
2022-10-28T16:26:50.083Z,5.43
2022-10-28T16:29:16.666Z,4.22
2022-10-28T16:31:46.857Z,5.00
2022-10-28T16:34:14.672Z,4.35
2022-10-28T16:36:41.257Z,4.13
2022-10-28T16:39:14.078Z,4.38
2022-10-28T16:41:41.298Z,4.63
2022-10-28T16:44:18.342Z,4.07
2022-10-28T16:46:45.024Z,4.43
2022-10-28T16:49:11.601Z,4.47
2022-10-28T16:51:38.896Z,4.00
2022-10-28T16:54:05.563Z,4.78
2022-10-28T16:56:32.098Z,4.95
2022-10-28T16:58:58.623Z,3.92
2022-10-28T17:01:25.351Z,4.00
2022-10-28T17:03:52.037Z,4.93
2022-10-28T17:06:18.531Z,4.15
2022-10-28T17:14:03.543Z,4.30
2022-10-28T17:16:30.110Z,4.13
2022-10-28T17:18:56.667Z,4.00
2022-10-28T17:21:23.353Z,3.72
2022-10-28T17:23:50.161Z,4.15
2022-10-28T17:26:16.696Z,4.35
2022-10-28T17:28:43.370Z,4.13
2022-10-28T17:31:10.025Z,5.03
2022-10-28T17:33:36.567Z,4.63
2022-10-28T17:36:05.879Z,4.28
2022-10-28T17:40:59.134Z,4.60
2022-10-28T17:43:25.814Z,4.30
2022-10-28T17:45:52.610Z,4.32
2022-10-28T17:48:19.201Z,4.28
2022-10-28T17:50:53.681Z,4.35
2022-10-28T17:53:21.910Z,4.45
2022-10-28T17:56:03.094Z,4.45
2022-10-28T17:58:29.907Z,4.85
2022-10-28T18:01:01.830Z,4.18
2022-10-28T18:03:32.739Z,4.68
2022-10-28T18:06:03.618Z,4.88
2022-10-28T18:08:38.830Z,4.50
2022-10-28T18:11:06.634Z,4.38
2022-10-28T18:13:35.351Z,4.30
2022-10-28T18:16:13.413Z,4.20
2022-10-28T18:18:42.538Z,4.78
2022-10-28T18:21:13.828Z,4.53
2022-10-28T18:23:43.221Z,5.80
2022-10-28T18:28:37.199Z,4.95
2022-10-28T18:31:09.912Z,4.72
2022-10-28T18:33:36.580Z,5.07
2022-10-28T18:36:06.716Z,5.05
2022-10-28T18:38:34.120Z,4.75
2022-10-28T18:41:00.676Z,4.88
2022-10-28T18:43:27.719Z,4.93
2022-10-28T18:45:54.345Z,4.35
2022-10-28T18:48:21.236Z,5.57
2022-10-28T18:51:17.530Z,5.07
2022-10-28T18:53:48.761Z,4.15
2022-10-28T18:56:18.180Z,4.68
2022-10-28T19:01:14.882Z,5.60
2022-10-28T19:03:42.212Z,4.25
2022-10-28T19:06:16.330Z,5.00
2022-10-28T19:08:44.066Z,5.15
2022-10-28T19:11:13.312Z,4.60
2022-10-28T19:13:42.068Z,5.15
2022-10-28T19:16:09.188Z,5.60
2022-10-28T19:18:38.132Z,5.40
2022-10-28T19:21:08.216Z,5.43
2022-10-28T19:23:34.891Z,5.85
2022-10-28T19:26:04.611Z,5.35
2022-10-28T19:28:39.495Z,5.18
2022-10-28T19:31:12.075Z,5.43
2022-10-28T19:33:51.573Z,5.90
2022-10-28T19:36:27.579Z,5.27
2022-10-28T19:38:59.197Z,6.55
2022-10-28T19:41:29.768Z,5.97
2022-10-28T19:44:03.127Z,5.37
2022-10-28T19:46:32.487Z,5.97
2022-10-28T19:49:00.935Z,6.47
2022-10-28T19:51:29.705Z,6.60
2022-10-28T19:53:58.718Z,6.60
2022-10-28T19:56:26.572Z,6.70
2022-10-28T19:58:56.432Z,5.85
2022-10-28T20:01:25.288Z,6.63
2022-10-28T20:03:54.013Z,5.55
2022-10-28T20:06:23.149Z,6.10
2022-10-28T20:08:49.851Z,5.88
2022-10-28T20:11:24.801Z,6.03
2022-10-28T20:13:55.507Z,6.28
2022-10-28T20:16:22.689Z,5.57
2022-10-28T20:18:49.329Z,6.00
2022-10-28T20:21:18.145Z,5.97
2022-10-28T20:23:47.217Z,6.45
2022-10-28T20:26:13.843Z,6.95
2022-10-28T20:28:40.628Z,5.93
2022-10-28T20:31:17.794Z,7.00
2022-10-28T20:33:49.964Z,6.25
2022-10-28T20:36:37.326Z,6.00
2022-10-28T20:39:10.994Z,6.13
2022-10-28T20:41:39.388Z,5.82
2022-10-28T20:44:07.212Z,6.28
2022-10-28T20:46:34.686Z,5.95
2022-10-28T20:49:02.083Z,6.35
2022-10-28T20:51:30.763Z,7.03
2022-10-28T20:53:57.720Z,7.45
2022-10-28T20:56:29.007Z,7.88
2022-10-28T20:58:57.959Z,8.20
2022-10-28T21:01:26.199Z,7.45
2022-10-28T21:03:55.234Z,7.05
2022-10-28T21:06:22.245Z,7.50
2022-10-28T21:08:49.161Z,7.82
2022-10-28T21:11:17.054Z,7.32
2022-10-28T21:13:46.081Z,7.30
2022-10-28T21:16:13.101Z,8.73
2022-10-28T21:18:40.277Z,7.95
2022-10-28T21:21:07.083Z,8.02
2022-10-28T21:23:33.702Z,7.85
2022-10-28T21:26:02.679Z,8.25
2022-10-28T21:28:31.404Z,7.90
2022-10-28T21:31:03.862Z,7.67
2022-10-28T21:33:30.433Z,7.43
2022-10-28T21:35:58.925Z,8.68
2022-10-28T21:38:26.514Z,8.25
2022-10-28T21:41:08.117Z,9.93
2022-10-28T21:43:36.602Z,8.25
2022-10-28T21:46:03.682Z,8.57
2022-10-28T21:48:31.570Z,9.57
2022-10-28T21:51:00.594Z,8.77
2022-10-28T21:53:28.002Z,8.15
2022-10-28T21:56:02.274Z,8.45
2022-10-28T21:58:29.228Z,9.48
2022-10-28T22:01:05.277Z,8.68
2022-10-28T22:03:31.825Z,8.35
2022-10-28T22:05:58.442Z,8.55
2022-10-28T22:08:25.247Z,8.65
2022-10-28T22:11:03.575Z,8.15
2022-10-28T22:13:30.540Z,8.27
2022-10-28T22:16:05.808Z,9.50
2022-10-28T22:18:34.615Z,8.27
2022-10-28T22:21:07.595Z,8.07
2022-10-28T22:23:34.580Z,8.07
2022-10-28T22:26:02.225Z,7.88
2022-10-28T22:28:28.831Z,8.75
2022-10-28T22:31:16.437Z,8.82
2022-10-28T22:33:43.309Z,8.18
2022-10-28T22:36:14.103Z,8.88
2022-10-28T22:38:41.519Z,9.52
2022-10-28T22:41:08.045Z,8.73
2022-10-28T22:43:35.022Z,8.52
2022-10-28T22:46:01.815Z,9.43
2022-10-28T22:48:29.250Z,9.40
2022-10-28T22:50:55.961Z,8.88
2022-10-28T22:53:23.403Z,9.75
2022-10-28T22:55:51.953Z,8.88
2022-10-28T22:58:18.550Z,9.73
2022-10-28T23:00:45.757Z,8.95
2022-10-28T23:03:13.082Z,9.20
2022-10-28T23:05:40.592Z,9.15
2022-10-28T23:08:07.437Z,8.90
2022-10-28T23:10:34.440Z,9.80
2022-10-28T23:13:02.463Z,8.77
2022-10-28T23:15:29.774Z,8.40
2022-10-28T23:17:56.959Z,9.73
2022-10-28T23:20:24.870Z,8.77
2022-10-28T23:22:54.512Z,8.85
2022-10-28T23:25:21.143Z,9.15
2022-10-28T23:27:47.633Z,8.55
2022-10-28T23:30:14.213Z,8.93
2022-10-28T23:32:40.756Z,9.18
2022-10-28T23:35:07.591Z,8.57
2022-10-28T23:37:34.156Z,8.10
2022-10-28T23:40:00.892Z,9.38
2022-10-28T23:42:27.473Z,8.82
2022-10-28T23:44:53.998Z,8.50
2022-10-28T23:47:20.587Z,8.73
2022-10-28T23:49:47.125Z,8.50
2022-10-28T23:52:13.740Z,8.30
2022-10-28T23:54:40.268Z,8.32
2022-10-28T23:57:08.293Z,9.05
2022-10-28T23:59:34.853Z,9.77
